Time;durP1;ratioP1;P1;durP2;ratioP2;P2;SDS_P1;SDS_P2;PMS_P1;PMS_P2;Temp;Humidity;BMP_temperature;BMP_pressure;BME280_temperature;BME280_humidity;BME280_pressure;Samples;Min_cycle;Max_cycle;Signal;HPM_P1;HPM_P2
2021/10/03 00:02:23;;;;;;;4.70;2.87;;;16.30;99.90;;;;;;5028321;28;20242;-46
2021/10/03 00:04:51;;;;;;;3.40;2.70;;;16.20;99.90;;;;;;5032391;28;20206;-47
2021/10/03 00:07:21;;;;;;;2.77;2.57;;;16.10;99.90;;;;;;5020802;28;20206;-44
2021/10/03 00:09:48;;;;;;;2.57;2.37;;;16.00;99.90;;;;;;5038398;28;20222;-54
2021/10/03 00:12:17;;;;;;;2.67;2.40;;;15.90;99.90;;;;;;5034048;28;20219;-48
2021/10/03 00:14:43;;;;;;;2.70;2.40;;;15.80;99.90;;;;;;5036715;28;20211;-46
2021/10/03 00:17:10;;;;;;;3.10;2.90;;;15.80;99.90;;;;;;5029359;28;20195;-45
2021/10/03 00:19:38;;;;;;;3.60;2.80;;;15.80;99.90;;;;;;5037641;28;20203;-46
2021/10/03 00:22:05;;;;;;;3.40;2.40;;;15.80;99.90;;;;;;5022544;28;20223;-50
2021/10/03 00:24:32;;;;;;;4.73;2.60;;;15.80;99.90;;;;;;5041126;28;20544;-49
2021/10/03 00:26:58;;;;;;;4.83;2.97;;;15.80;99.90;;;;;;5032279;28;20202;-49
2021/10/03 00:29:27;;;;;;;3.17;2.70;;;15.90;99.90;;;;;;5040864;28;20227;-45
2021/10/03 00:31:53;;;;;;;4.20;2.80;;;15.90;99.90;;;;;;5040833;28;20268;-51
2021/10/03 00:34:20;;;;;;;4.50;2.90;;;15.90;99.90;;;;;;5027251;28;20211;-51
2021/10/03 00:36:47;;;;;;;2.80;2.60;;;16.00;99.90;;;;;;5036899;28;20210;-49
2021/10/03 00:39:13;;;;;;;8.23;3.10;;;16.00;99.90;;;;;;5020621;28;20203;-44
2021/10/03 00:41:43;;;;;;;5.17;2.80;;;16.00;99.90;;;;;;5035852;28;20226;-48
2021/10/03 00:44:10;;;;;;;3.40;3.10;;;16.00;99.90;;;;;;5038342;28;20195;-45
2021/10/03 00:46:38;;;;;;;4.83;2.57;;;16.10;99.90;;;;;;5042581;28;20210;-49
2021/10/03 00:49:05;;;;;;;3.60;3.23;;;16.10;99.90;;;;;;5026197;28;20195;-46
2021/10/03 00:51:31;;;;;;;9.37;3.20;;;16.20;99.90;;;;;;5038379;28;20199;-46
2021/10/03 00:53:59;;;;;;;4.20;2.83;;;16.20;99.90;;;;;;5023236;28;20226;-44
2021/10/03 00:56:25;;;;;;;3.87;2.80;;;16.30;99.90;;;;;;5041145;28;20470;-45
2021/10/03 00:58:52;;;;;;;4.70;3.33;;;16.30;99.90;;;;;;5041871;28;20257;-48
2021/10/03 01:01:20;;;;;;;3.97;3.23;;;16.40;99.90;;;;;;5037490;28;20665;-46
2021/10/03 01:03:49;;;;;;;3.53;3.20;;;16.50;99.90;;;;;;5041722;28;20235;-52
2021/10/03 01:06:16;;;;;;;4.80;3.20;;;16.50;99.90;;;;;;5016401;28;20708;-47
2021/10/03 01:08:42;;;;;;;3.40;3.10;;;16.50;99.90;;;;;;5035050;28;20203;-45
2021/10/03 01:11:09;;;;;;;4.70;3.10;;;16.60;99.90;;;;;;5042676;28;20324;-49
2021/10/03 01:13:35;;;;;;;3.67;3.03;;;16.70;99.90;;;;;;5046332;28;20218;-45
2021/10/03 01:16:02;;;;;;;3.77;3.13;;;16.80;99.90;;;;;;5043394;28;20730;-49
2021/10/03 01:18:29;;;;;;;4.47;3.37;;;16.80;99.90;;;;;;5045732;28;20203;-46
2021/10/03 01:20:57;;;;;;;3.13;2.83;;;16.90;99.90;;;;;;5042434;28;20203;-51
2021/10/03 01:23:25;;;;;;;2.90;2.67;;;17.00;99.90;;;;;;5025512;28;20900;-48
2021/10/03 01:25:52;;;;;;;3.90;2.93;;;17.00;99.90;;;;;;5041536;28;20215;-53
2021/10/03 01:28:20;;;;;;;3.43;2.80;;;17.10;99.90;;;;;;5042234;28;20191;-46
2021/10/03 01:30:50;;;;;;;3.67;2.90;;;17.10;99.90;;;;;;5040428;28;20234;-47
2021/10/03 01:33:17;;;;;;;3.20;3.00;;;17.20;99.90;;;;;;5038679;28;20230;-47
2021/10/03 01:35:44;;;;;;;6.23;3.00;;;17.30;99.90;;;;;;5043820;28;20195;-45
2021/10/03 01:38:14;;;;;;;4.03;2.97;;;17.50;99.90;;;;;;5023771;28;20217;-45
2021/10/03 01:40:42;;;;;;;5.17;3.10;;;17.70;99.90;;;;;;5029741;28;20191;-45
2021/10/03 01:43:09;;;;;;;2.90;2.70;;;17.80;99.90;;;;;;5047697;28;20585;-52
2021/10/03 01:45:36;;;;;;;3.33;2.90;;;17.80;99.90;;;;;;5044186;28;20203;-46
2021/10/03 01:48:09;;;;;;;4.33;3.67;;;17.90;99.90;;;;;;5047057;28;20245;-46
2021/10/03 01:50:42;;;;;;;2.97;2.70;;;17.90;99.90;;;;;;5038566;28;20231;-49
2021/10/03 01:53:11;;;;;;;3.10;2.60;;;18.00;99.90;;;;;;5028031;28;20223;-45
2021/10/03 01:55:38;;;;;;;4.03;3.00;;;18.00;99.90;;;;;;5027509;28;20203;-53
2021/10/03 01:58:08;;;;;;;3.77;3.00;;;18.00;99.90;;;;;;5035881;28;20199;-45
2021/10/03 02:00:36;;;;;;;5.53;3.17;;;18.00;99.90;;;;;;5041999;28;20200;-53
2021/10/03 02:03:05;;;;;;;3.67;2.90;;;18.00;99.90;;;;;;5045906;28;20235;-46
2021/10/03 02:05:36;;;;;;;3.40;3.10;;;18.00;99.90;;;;;;5037602;28;20199;-52
2021/10/03 02:08:03;;;;;;;3.47;3.17;;;18.00;99.90;;;;;;5034648;28;20281;-49
2021/10/03 02:10:30;;;;;;;3.33;3.03;;;18.00;99.90;;;;;;5035459;28;20684;-51
2021/10/03 02:12:56;;;;;;;3.93;2.97;;;18.00;99.90;;;;;;5039633;28;20442;-48
2021/10/03 02:15:25;;;;;;;5.17;2.97;;;18.00;99.90;;;;;;5038827;28;20218;-51
2021/10/03 02:17:52;;;;;;;3.37;3.07;;;18.00;99.90;;;;;;5042597;28;20195;-45
2021/10/03 02:20:20;;;;;;;4.20;3.30;;;18.00;99.90;;;;;;5044532;28;20200;-46
2021/10/03 02:22:47;;;;;;;3.80;3.00;;;18.10;99.90;;;;;;5019989;28;20237;-44
2021/10/03 02:25:14;;;;;;;3.50;3.03;;;18.10;99.90;;;;;;5035533;28;20195;-46
2021/10/03 02:27:41;;;;;;;3.77;3.20;;;18.20;99.90;;;;;;5023653;28;20265;-51
2021/10/03 02:30:09;;;;;;;3.03;2.63;;;18.20;99.90;;;;;;5043946;28;20215;-45
2021/10/03 02:32:37;;;;;;;3.30;3.00;;;18.30;99.90;;;;;;5042334;28;20722;-46
2021/10/03 02:35:06;;;;;;;4.20;3.33;;;18.30;99.90;;;;;;5042877;28;20210;-47
2021/10/03 02:37:33;;;;;;;3.00;2.80;;;18.20;99.90;;;;;;5028777;28;20203;-47
2021/10/03 02:40:00;;;;;;;3.80;3.00;;;18.20;99.90;;;;;;5037083;28;20703;-47
2021/10/03 02:42:27;;;;;;;3.20;2.90;;;18.30;99.90;;;;;;5030206;28;20215;-49
2021/10/03 02:44:54;;;;;;;3.13;2.87;;;18.30;99.90;;;;;;5040577;28;20282;-48
2021/10/03 02:47:20;;;;;;;6.33;3.30;;;18.30;99.90;;;;;;5044879;28;20203;-45
2021/10/03 02:49:48;;;;;;;3.00;2.70;;;18.30;99.90;;;;;;5034212;28;20200;-49
2021/10/03 02:52:15;;;;;;;6.07;2.90;;;18.20;99.90;;;;;;5045776;28;20310;-45
2021/10/03 02:54:42;;;;;;;4.97;3.10;;;18.30;99.90;;;;;;5029336;28;20195;-49
2021/10/03 02:57:09;;;;;;;3.10;2.80;;;18.30;99.90;;;;;;5027321;28;20290;-47
2021/10/03 02:59:36;;;;;;;3.20;2.87;;;18.30;99.90;;;;;;5034229;28;20204;-45
2021/10/03 03:02:03;;;;;;;3.77;3.00;;;18.30;99.90;;;;;;5046247;28;20201;-48
2021/10/03 03:04:30;;;;;;;4.17;3.20;;;18.30;99.90;;;;;;5041838;28;20575;-45
2021/10/03 03:06:58;;;;;;;3.30;3.00;;;18.40;99.90;;;;;;5040443;28;20203;-47
2021/10/03 03:09:25;;;;;;;3.30;3.00;;;18.40;99.90;;;;;;5025275;28;20257;-50
2021/10/03 03:11:51;;;;;;;3.23;2.93;;;18.40;99.90;;;;;;5035968;28;20226;-48
2021/10/03 03:14:18;;;;;;;3.27;2.93;;;18.50;99.90;;;;;;5032641;28;20564;-54
2021/10/03 03:16:47;;;;;;;3.60;2.77;;;18.50;99.90;;;;;;5042646;28;20538;-49
2021/10/03 03:19:14;;;;;;;3.00;2.70;;;18.40;99.90;;;;;;5042880;28;20207;-49
2021/10/03 03:21:41;;;;;;;3.40;3.10;;;18.40;99.90;;;;;;5041575;28;20207;-47
2021/10/03 03:24:10;;;;;;;3.50;3.17;;;18.40;99.90;;;;;;5032727;28;20223;-48
2021/10/03 03:26:37;;;;;;;3.40;3.10;;;18.40;99.90;;;;;;5029878;28;20196;-46
2021/10/03 03:29:04;;;;;;;3.60;3.30;;;18.30;99.90;;;;;;5030314;28;20200;-49
2021/10/03 03:31:32;;;;;;;3.50;3.20;;;18.30;99.90;;;;;;5041578;28;20211;-47
2021/10/03 03:33:59;;;;;;;4.47;2.60;;;18.30;99.90;;;;;;5036918;28;20387;-47
2021/10/03 03:36:25;;;;;;;4.70;2.93;;;18.30;99.90;;;;;;5038071;28;20195;-49
2021/10/03 03:38:52;;;;;;;3.03;2.77;;;18.30;99.90;;;;;;5023048;28;22105;-50
2021/10/03 03:41:20;;;;;;;3.07;2.70;;;18.30;99.90;;;;;;5034316;28;20203;-46
2021/10/03 03:43:46;;;;;;;3.47;2.70;;;18.30;99.90;;;;;;5037852;28;20211;-45
2021/10/03 03:46:13;;;;;;;2.77;2.57;;;18.30;99.90;;;;;;5030846;28;20219;-46
2021/10/03 03:48:40;;;;;;;2.90;2.70;;;18.30;99.90;;;;;;5038949;28;20282;-50
2021/10/03 03:51:06;;;;;;;3.10;2.80;;;18.30;99.90;;;;;;5031907;28;20955;-49
2021/10/03 03:53:34;;;;;;;3.83;2.80;;;18.30;99.90;;;;;;5037292;28;20716;-47
2021/10/03 03:56:01;;;;;;;2.90;2.70;;;18.20;99.90;;;;;;5025791;28;20210;-46
2021/10/03 03:58:29;;;;;;;4.60;3.10;;;18.20;99.90;;;;;;5042968;28;20188;-48
2021/10/03 04:00:55;;;;;;;3.30;3.00;;;18.10;99.90;;;;;;5028839;28;20253;-47
2021/10/03 04:03:22;;;;;;;4.37;3.20;;;18.10;99.90;;;;;;5037862;28;20459;-45
2021/10/03 04:05:48;;;;;;;3.33;3.03;;;18.00;99.90;;;;;;5041423;28;20195;-46
2021/10/03 04:08:16;;;;;;;3.27;2.90;;;18.00;99.90;;;;;;5030866;28;20222;-48
2021/10/03 04:10:43;;;;;;;3.30;3.00;;;17.90;99.90;;;;;;5030390;28;20212;-50
2021/10/03 04:13:10;;;;;;;5.07;2.93;;;17.90;99.90;;;;;;5034730;28;20223;-49
2021/10/03 04:15:37;;;;;;;3.00;2.80;;;17.90;99.90;;;;;;5035406;28;20203;-47
2021/10/03 04:18:04;;;;;;;3.10;2.87;;;17.90;99.90;;;;;;5027633;28;20746;-45
2021/10/03 04:20:31;;;;;;;3.60;3.10;;;17.90;99.90;;;;;;5044270;28;20199;-48
2021/10/03 04:22:58;;;;;;;3.10;2.90;;;17.90;99.90;;;;;;5038199;28;20223;-46
2021/10/03 04:25:24;;;;;;;5.13;3.50;;;17.90;99.90;;;;;;5023278;28;20724;-47
2021/10/03 04:27:51;;;;;;;5.10;3.47;;;17.90;99.90;;;;;;5034087;28;20191;-51
2021/10/03 04:30:17;;;;;;;3.20;2.90;;;17.90;99.90;;;;;;5037561;28;20187;-47
2021/10/03 04:32:45;;;;;;;4.07;3.30;;;17.90;99.90;;;;;;5031402;28;20241;-45
2021/10/03 04:35:12;;;;;;;3.07;2.83;;;17.90;99.90;;;;;;5038354;28;20972;-48
2021/10/03 04:37:39;;;;;;;3.40;3.10;;;17.90;99.90;;;;;;5041520;28;20199;-47
2021/10/03 04:40:07;;;;;;;3.67;3.37;;;17.90;99.90;;;;;;5029958;28;20274;-50
2021/10/03 04:42:34;;;;;;;3.93;3.30;;;18.00;99.90;;;;;;5041704;28;20219;-46
2021/10/03 04:45:00;;;;;;;3.50;3.20;;;18.00;99.90;;;;;;5035945;28;20215;-46
2021/10/03 04:47:27;;;;;;;4.47;2.93;;;18.00;99.90;;;;;;5046374;28;20203;-48
2021/10/03 04:49:56;;;;;;;3.40;3.07;;;18.00;99.90;;;;;;5034272;28;20597;-51
2021/10/03 04:52:25;;;;;;;3.93;3.60;;;18.00;99.90;;;;;;5045811;28;20619;-48
2021/10/03 04:54:52;;;;;;;4.33;3.70;;;18.00;99.90;;;;;;5042982;28;20610;-54
2021/10/03 04:57:20;;;;;;;3.77;3.17;;;18.00;99.90;;;;;;5035482;28;20203;-48
2021/10/03 04:59:46;;;;;;;3.87;3.33;;;18.00;99.90;;;;;;5037802;28;20192;-50
2021/10/03 05:02:13;;;;;;;3.43;3.13;;;18.00;99.90;;;;;;5040628;28;20227;-47
2021/10/03 05:04:40;;;;;;;3.37;3.07;;;18.00;99.90;;;;;;5035281;28;20222;-47
2021/10/03 05:07:08;;;;;;;4.20;3.33;;;18.00;99.90;;;;;;5035633;28;20718;-48
2021/10/03 05:09:34;;;;;;;3.53;3.23;;;18.10;99.90;;;;;;5039611;28;20250;-45
2021/10/03 05:12:01;;;;;;;3.00;2.80;;;18.10;99.90;;;;;;5032238;28;20221;-51
2021/10/03 05:14:28;;;;;;;3.37;3.07;;;18.10;99.90;;;;;;5042791;28;20649;-48
2021/10/03 05:16:55;;;;;;;3.17;2.87;;;18.10;99.90;;;;;;5043765;28;20205;-51
2021/10/03 05:19:21;;;;;;;3.17;2.93;;;18.10;99.90;;;;;;5031113;28;21015;-48
2021/10/03 05:21:48;;;;;;;3.10;2.80;;;18.10;99.90;;;;;;5045055;28;20202;-47
2021/10/03 05:24:16;;;;;;;4.17;3.07;;;18.10;99.90;;;;;;5039472;28;20199;-45
2021/10/03 05:26:43;;;;;;;3.63;3.33;;;18.10;99.90;;;;;;5038996;28;20230;-52
2021/10/03 05:29:10;;;;;;;3.53;2.67;;;18.20;99.90;;;;;;5023961;28;20199;-48
2021/10/03 05:31:36;;;;;;;3.30;3.00;;;18.20;99.90;;;;;;5044173;28;20272;-48
2021/10/03 05:34:03;;;;;;;4.73;3.03;;;18.20;99.90;;;;;;5026037;28;20696;-49
2021/10/03 05:36:30;;;;;;;4.30;3.00;;;18.20;99.90;;;;;;5039354;28;20203;-46
2021/10/03 05:39:00;;;;;;;3.83;3.03;;;18.20;99.90;;;;;;5034092;28;20258;-49
2021/10/03 05:41:28;;;;;;;5.50;3.07;;;18.20;99.90;;;;;;5043717;28;20208;-49
2021/10/03 05:43:55;;;;;;;3.90;3.03;;;18.20;99.90;;;;;;5030861;28;20230;-49
2021/10/03 05:46:22;;;;;;;3.07;2.63;;;18.30;99.90;;;;;;5033193;28;20207;-51
2021/10/03 05:48:49;;;;;;;2.43;2.33;;;18.30;99.90;;;;;;5037356;28;20199;-55
2021/10/03 05:51:15;;;;;;;4.00;2.90;;;18.30;99.90;;;;;;5030422;28;20230;-45
2021/10/03 05:53:42;;;;;;;3.00;2.80;;;18.30;99.90;;;;;;5040157;28;20223;-45
2021/10/03 05:56:08;;;;;;;3.93;2.80;;;18.30;99.90;;;;;;5042292;28;20198;-50
2021/10/03 05:58:36;;;;;;;3.60;2.90;;;18.30;99.90;;;;;;5030196;28;20203;-44
2021/10/03 06:01:03;;;;;;;3.03;2.83;;;18.30;99.90;;;;;;5031416;28;20207;-50
2021/10/03 06:03:30;;;;;;;3.67;2.77;;;18.30;99.90;;;;;;5026683;28;20441;-46
2021/10/03 06:05:56;;;;;;;3.23;2.93;;;18.30;99.90;;;;;;5024698;28;20868;-49
2021/10/03 06:08:23;;;;;;;4.37;3.03;;;18.30;99.90;;;;;;5037542;28;20261;-48
2021/10/03 06:10:50;;;;;;;3.73;2.87;;;18.30;99.90;;;;;;5044918;28;20199;-49
2021/10/03 06:13:17;;;;;;;3.20;2.90;;;18.30;99.90;;;;;;5039291;28;20890;-46
2021/10/03 06:15:45;;;;;;;3.07;2.77;;;18.30;99.90;;;;;;5027700;28;20204;-50
2021/10/03 06:18:12;;;;;;;2.90;2.70;;;18.30;99.90;;;;;;5039131;28;20203;-50
2021/10/03 06:20:39;;;;;;;3.33;2.90;;;18.30;99.90;;;;;;5028827;28;20194;-47
2021/10/03 06:23:06;;;;;;;4.07;3.17;;;18.40;99.90;;;;;;5044837;28;20231;-50
2021/10/03 06:25:33;;;;;;;4.23;3.00;;;18.40;99.90;;;;;;5036733;28;20265;-49
2021/10/03 06:28:00;;;;;;;2.77;2.57;;;18.40;99.90;;;;;;5043872;28;20663;-54
2021/10/03 06:30:27;;;;;;;9.20;2.97;;;18.40;99.90;;;;;;5017108;28;20203;-47
2021/10/03 06:32:55;;;;;;;3.10;2.80;;;18.50;99.90;;;;;;5041931;28;20227;-50
2021/10/03 06:35:22;;;;;;;2.83;2.53;;;18.50;99.90;;;;;;5024861;28;21455;-46
2021/10/03 06:37:49;;;;;;;3.30;3.00;;;18.50;99.90;;;;;;5042105;28;20193;-53
2021/10/03 06:40:16;;;;;;;4.20;2.77;;;18.50;99.90;;;;;;5036546;28;20239;-46
2021/10/03 06:42:42;;;;;;;4.33;3.30;;;18.50;99.90;;;;;;5033335;28;20215;-49
2021/10/03 06:45:09;;;;;;;3.43;3.13;;;18.50;99.90;;;;;;5038323;28;20660;-52
2021/10/03 06:47:36;;;;;;;3.13;2.93;;;18.50;99.90;;;;;;5027708;28;20196;-48
2021/10/03 06:50:05;;;;;;;3.83;3.10;;;18.50;99.90;;;;;;5037995;28;20199;-47
2021/10/03 06:52:32;;;;;;;3.20;2.90;;;18.50;99.90;;;;;;5022994;28;20212;-47
2021/10/03 06:54:58;;;;;;;3.40;3.13;;;18.60;99.90;;;;;;5031120;28;20614;-49
2021/10/03 06:57:25;;;;;;;3.60;2.77;;;18.60;99.90;;;;;;5034952;28;20199;-49
2021/10/03 06:59:52;;;;;;;4.97;2.73;;;18.60;99.90;;;;;;5044285;28;20195;-50
2021/10/03 07:02:21;;;;;;;3.73;2.93;;;18.70;99.90;;;;;;5022830;28;20223;-50
2021/10/03 07:04:48;;;;;;;3.07;2.77;;;18.70;99.90;;;;;;5032476;28;20200;-49
2021/10/03 07:07:16;;;;;;;4.20;3.10;;;18.70;99.90;;;;;;5031467;28;20215;-48
2021/10/03 07:09:43;;;;;;;3.10;2.83;;;18.70;99.90;;;;;;5032428;28;20466;-47
2021/10/03 07:12:10;;;;;;;3.17;2.37;;;18.70;99.90;;;;;;5042699;28;20226;-49
2021/10/03 07:14:36;;;;;;;5.23;2.67;;;18.80;99.90;;;;;;5038379;28;20298;-52
2021/10/03 07:17:03;;;;;;;3.23;2.90;;;18.80;99.90;;;;;;5032997;28;20214;-51
2021/10/03 07:19:30;;;;;;;3.43;3.13;;;18.80;99.90;;;;;;5034671;28;20188;-51
2021/10/03 07:21:56;;;;;;;4.33;3.10;;;18.80;99.90;;;;;;5041543;28;20286;-53
2021/10/03 07:24:24;;;;;;;4.67;3.23;;;18.90;99.90;;;;;;5028564;28;20707;-49
2021/10/03 07:26:51;;;;;;;2.93;2.73;;;18.90;99.90;;;;;;5043647;28;20653;-50
2021/10/03 07:29:18;;;;;;;3.07;2.87;;;18.90;99.90;;;;;;5028061;28;20304;-48
2021/10/03 07:31:44;;;;;;;3.27;2.70;;;18.90;99.90;;;;;;5040314;28;20557;-46
2021/10/03 07:34:11;;;;;;;3.03;2.40;;;19.00;99.90;;;;;;5022115;28;20223;-51
2021/10/03 07:36:38;;;;;;;3.50;2.93;;;19.00;99.90;;;;;;5031498;28;20207;-50
2021/10/03 07:39:04;;;;;;;3.30;3.00;;;19.00;99.90;;;;;;5019384;28;20199;-49
2021/10/03 07:41:33;;;;;;;3.77;2.80;;;19.00;99.90;;;;;;5036754;28;20789;-46
2021/10/03 07:44:00;;;;;;;3.43;3.13;;;19.00;99.90;;;;;;5029339;28;20230;-51
2021/10/03 07:46:26;;;;;;;3.17;2.87;;;19.00;99.90;;;;;;5043112;28;20202;-45
2021/10/03 07:48:53;;;;;;;2.87;2.67;;;19.00;99.90;;;;;;5027812;28;20249;-49
2021/10/03 07:51:19;;;;;;;3.63;3.33;;;19.00;99.90;;;;;;5032543;28;20210;-52
2021/10/03 07:53:46;;;;;;;3.20;2.90;;;19.10;99.90;;;;;;5033602;28;20781;-45
2021/10/03 07:56:13;;;;;;;3.83;2.90;;;19.10;99.90;;;;;;5033418;28;20211;-47
2021/10/03 07:58:42;;;;;;;4.37;3.20;;;19.10;99.90;;;;;;5041319;28;20260;-51
2021/10/03 08:01:09;;;;;;;3.37;2.73;;;19.10;99.90;;;;;;5034725;28;20199;-46
2021/10/03 08:03:37;;;;;;;3.00;2.80;;;19.10;99.90;;;;;;5021086;28;20234;-50
2021/10/03 08:06:04;;;;;;;4.10;2.83;;;19.10;99.90;;;;;;5033840;28;20195;-45
2021/10/03 08:08:31;;;;;;;3.30;3.00;;;19.10;99.90;;;;;;5022595;28;20204;-49
2021/10/03 08:10:57;;;;;;;4.07;3.20;;;19.20;99.90;;;;;;5024470;28;20697;-51
2021/10/03 08:13:24;;;;;;;4.10;3.57;;;19.20;99.90;;;;;;5036585;28;20717;-49
2021/10/03 08:15:52;;;;;;;4.03;2.90;;;19.20;99.90;;;;;;5032496;28;20423;-48
2021/10/03 08:18:19;;;;;;;2.80;2.60;;;19.30;99.90;;;;;;5043857;28;20191;-45
2021/10/03 08:20:47;;;;;;;3.33;3.03;;;19.30;99.90;;;;;;5029315;28;20267;-49
2021/10/03 08:23:14;;;;;;;3.93;3.53;;;19.30;99.90;;;;;;5027725;28;20215;-51
2021/10/03 08:25:41;;;;;;;4.13;2.90;;;19.30;99.90;;;;;;5025627;28;20203;-49
2021/10/03 08:28:07;;;;;;;3.93;3.00;;;19.30;99.90;;;;;;5032961;28;20226;-49
2021/10/03 08:30:34;;;;;;;3.37;3.07;;;19.30;99.90;;;;;;5031563;28;20262;-47
2021/10/03 08:33:02;;;;;;;3.30;3.00;;;19.30;99.90;;;;;;5040681;28;20222;-47
2021/10/03 08:35:29;;;;;;;3.70;3.40;;;19.30;99.90;;;;;;5023219;28;20814;-48
2021/10/03 08:37:56;;;;;;;3.57;3.00;;;19.30;99.90;;;;;;5040786;28;20199;-52
2021/10/03 08:40:22;;;;;;;2.90;2.70;;;19.30;99.90;;;;;;5029973;28;20222;-50
2021/10/03 08:42:49;;;;;;;3.93;2.83;;;19.30;99.90;;;;;;5032901;28;20218;-45
2021/10/03 08:45:16;;;;;;;3.50;2.63;;;19.30;99.90;;;;;;5028228;28;20214;-47
2021/10/03 08:47:43;;;;;;;3.37;3.17;;;19.30;99.90;;;;;;5028158;28;20937;-45
2021/10/03 08:50:13;;;;;;;4.10;3.37;;;19.30;99.90;;;;;;5029988;28;20195;-50
2021/10/03 08:52:40;;;;;;;3.50;2.67;;;19.30;99.90;;;;;;5035376;28;20284;-49
2021/10/03 08:55:08;;;;;;;3.07;2.83;;;19.20;99.90;;;;;;5034394;28;20203;-45
2021/10/03 08:57:35;;;;;;;7.00;2.97;;;19.20;99.90;;;;;;5027703;28;20199;-48
2021/10/03 09:00:06;;;;;;;3.30;3.00;;;19.10;99.90;;;;;;5035936;28;20719;-50
2021/10/03 09:02:52;;;;;;;2.97;2.70;;;19.10;99.90;;;;;;5030004;28;20719;-54
2021/10/03 09:05:21;;;;;;;4.47;3.17;;;19.10;99.90;;;;;;5035996;28;20724;-52
2021/10/03 09:07:59;;;;;;;3.63;2.93;;;19.00;99.90;;;;;;5025567;28;20211;-46
2021/10/03 09:10:26;;;;;;;3.07;2.87;;;19.00;99.90;;;;;;5030402;28;20282;-46
2021/10/03 09:12:57;;;;;;;3.40;3.10;;;19.00;99.90;;;;;;5022364;28;20423;-47
2021/10/03 09:15:24;;;;;;;4.90;3.50;;;19.00;99.90;;;;;;5019632;28;20299;-51
2021/10/03 09:17:52;;;;;;;3.93;2.87;;;19.00;99.90;;;;;;5030537;28;20923;-46
2021/10/03 09:20:23;;;;;;;3.23;2.83;;;19.00;99.90;;;;;;5032211;28;20199;-53
2021/10/03 09:22:56;;;;;;;2.90;2.70;;;19.00;99.90;;;;;;5025820;28;20409;-46
2021/10/03 09:25:33;;;;;;;3.70;2.97;;;19.00;99.90;;;;;;5037362;28;20211;-54
2021/10/03 09:28:00;;;;;;;3.80;3.20;;;19.10;99.90;;;;;;5030499;28;20214;-45
2021/10/03 09:30:26;;;;;;;3.87;3.50;;;19.10;99.90;;;;;;5042403;28;20672;-51
2021/10/03 09:32:56;;;;;;;3.30;3.00;;;19.10;99.90;;;;;;5037813;28;20226;-49
2021/10/03 09:35:25;;;;;;;3.00;2.80;;;19.10;99.90;;;;;;5039414;28;20213;-48
2021/10/03 09:37:52;;;;;;;3.17;2.87;;;19.10;99.90;;;;;;5028717;28;20242;-48
2021/10/03 09:40:19;;;;;;;4.83;2.70;;;19.10;99.90;;;;;;5036943;28;20198;-47
2021/10/03 09:42:52;;;;;;;3.43;3.00;;;19.20;99.90;;;;;;5026620;28;20219;-50
2021/10/03 09:45:22;;;;;;;3.70;2.67;;;19.20;99.90;;;;;;5040510;28;20283;-51
2021/10/03 09:48:00;;;;;;;2.90;2.70;;;19.30;99.90;;;;;;5034760;28;20211;-51
2021/10/03 09:50:28;;;;;;;3.43;3.13;;;19.30;99.90;;;;;;5035458;28;20660;-49
2021/10/03 09:52:55;;;;;;;3.87;3.20;;;19.30;99.90;;;;;;5029962;28;20233;-48
2021/10/03 09:55:25;;;;;;;3.20;2.90;;;19.40;99.90;;;;;;5028024;28;20279;-46
2021/10/03 09:57:53;;;;;;;2.80;2.60;;;19.40;99.90;;;;;;5033447;28;20875;-50
2021/10/03 10:00:22;;;;;;;2.90;2.70;;;19.40;99.90;;;;;;5032818;28;20195;-52
2021/10/03 10:02:49;;;;;;;3.07;2.87;;;19.40;99.90;;;;;;5045036;28;20218;-46
2021/10/03 10:05:20;;;;;;;3.47;3.17;;;19.40;99.90;;;;;;5036658;28;20199;-46
2021/10/03 10:07:48;;;;;;;3.07;2.77;;;19.40;99.90;;;;;;5035089;28;20200;-48
2021/10/03 10:10:15;;;;;;;3.37;2.97;;;19.40;99.90;;;;;;5022280;28;20794;-48
2021/10/03 10:12:46;;;;;;;3.43;2.97;;;19.40;99.90;;;;;;5038486;28;20763;-49
2021/10/03 10:15:13;;;;;;;5.10;2.97;;;19.40;99.90;;;;;;5029543;28;20210;-45
2021/10/03 10:17:41;;;;;;;7.93;3.00;;;19.40;99.90;;;;;;5041071;28;20600;-48
2021/10/03 10:20:34;;;;;;;2.67;2.47;;;19.40;99.90;;;;;;5029298;28;20199;-50
2021/10/03 10:23:04;;;;;;;3.70;2.80;;;19.40;99.90;;;;;;5036394;28;20219;-52
2021/10/03 10:25:40;;;;;;;3.47;3.07;;;19.40;99.90;;;;;;5022783;28;20200;-49
2021/10/03 10:28:15;;;;;;;3.00;2.80;;;19.40;99.90;;;;;;5037167;28;20895;-52
2021/10/03 10:31:05;;;;;;;2.97;2.67;;;19.40;99.90;;;;;;5030625;28;20260;-51
2021/10/03 10:34:04;;;;;;;2.73;2.53;;;19.40;99.90;;;;;;5033847;28;20599;-50
2021/10/03 10:36:32;;;;;;;4.70;2.83;;;19.50;99.90;;;;;;5035663;28;20196;-52
2021/10/03 10:39:25;;;;;;;3.27;2.73;;;19.50;99.90;;;;;;5032286;28;20786;-50
2021/10/03 10:41:53;;;;;;;2.90;2.57;;;19.50;99.90;;;;;;5025594;28;20219;-51
2021/10/03 10:44:40;;;;;;;2.80;2.60;;;19.50;99.90;;;;;;5040322;28;20199;-57
2021/10/03 10:47:16;;;;;;;2.97;2.70;;;19.50;99.90;;;;;;5026038;28;20199;-53
2021/10/03 10:49:48;;;;;;;3.07;2.87;;;19.50;99.90;;;;;;5033138;28;20876;-49
2021/10/03 10:52:32;;;;;;;3.30;3.00;;;19.50;99.90;;;;;;5032046;28;20329;-50
2021/10/03 10:55:30;;;;;;;4.10;3.17;;;19.50;99.90;;;;;;5030762;28;20199;-52
2021/10/03 10:58:21;;;;;;;4.07;2.63;;;19.50;99.90;;;;;;5027815;28;20200;-50
2021/10/03 11:01:12;;;;;;;2.80;2.60;;;19.60;99.90;;;;;;5023898;28;20207;-51
2021/10/03 11:04:07;;;;;;;5.40;2.90;;;19.70;99.90;;;;;;5024766;28;20630;-50
2021/10/03 11:07:02;;;;;;;3.30;3.00;;;19.70;99.90;;;;;;5036536;28;20227;-47
2021/10/03 11:09:53;;;;;;;3.17;2.87;;;19.80;99.90;;;;;;5034113;28;20199;-52
2021/10/03 11:12:34;;;;;;;4.23;2.93;;;19.80;99.90;;;;;;5030573;28;20628;-48
2021/10/03 11:15:20;;;;;;;3.00;2.70;;;19.90;99.90;;;;;;5033578;28;20420;-46
2021/10/03 11:17:47;;;;;;;2.90;2.50;;;20.00;99.90;;;;;;5018224;28;20609;-51
2021/10/03 11:20:14;;;;;;;3.20;2.43;;;20.00;99.90;;;;;;5036468;28;20424;-50
2021/10/03 11:22:41;;;;;;;3.63;2.50;;;20.00;99.90;;;;;;5039281;28;20218;-58
2021/10/03 11:25:15;;;;;;;2.87;2.50;;;20.10;99.90;;;;;;5035152;28;20916;-42
2021/10/03 11:27:43;;;;;;;2.90;2.67;;;20.10;99.90;;;;;;5023045;28;20207;-49
2021/10/03 11:30:11;;;;;;;5.33;3.87;;;20.20;99.90;;;;;;5039053;28;20199;-51
2021/10/03 11:32:39;;;;;;;3.90;2.93;;;20.20;99.90;;;;;;5024055;28;20281;-47
2021/10/03 11:35:07;;;;;;;2.67;2.40;;;20.20;99.90;;;;;;5031984;28;20264;-51
2021/10/03 11:37:35;;;;;;;2.80;2.50;;;20.20;99.90;;;;;;5030587;28;20556;-52
2021/10/03 11:40:07;;;;;;;2.93;2.63;;;20.20;99.90;;;;;;5028319;28;20203;-52
2021/10/03 11:42:36;;;;;;;3.33;2.87;;;20.20;99.90;;;;;;5027440;28;20727;-52
2021/10/03 11:45:08;;;;;;;3.33;2.30;;;20.20;99.90;;;;;;5039620;28;20197;-48
2021/10/03 11:47:41;;;;;;;3.93;2.40;;;20.10;99.90;;;;;;5040981;28;20211;-62
2021/10/03 11:50:09;;;;;;;3.13;2.20;;;20.10;99.90;;;;;;5022399;28;20203;-47
2021/10/03 11:52:37;;;;;;;2.63;2.43;;;20.20;99.90;;;;;;5032357;28;20692;-47
2021/10/03 11:55:08;;;;;;;5.50;2.57;;;20.20;99.90;;;;;;5036496;28;20203;-45
2021/10/03 11:57:38;;;;;;;3.63;2.43;;;20.20;99.90;;;;;;5038428;28;20199;-48
2021/10/03 12:00:09;;;;;;;4.10;2.30;;;20.20;99.90;;;;;;5019370;28;20934;-46
2021/10/03 12:02:38;;;;;;;2.87;2.50;;;20.20;99.90;;;;;;5042983;28;20231;-54
2021/10/03 12:05:07;;;;;;;2.50;2.30;;;20.30;99.90;;;;;;5010306;28;20952;-46
2021/10/03 12:07:34;;;;;;;2.30;2.20;;;20.20;99.90;;;;;;5037086;28;20285;-46
2021/10/03 12:10:04;;;;;;;2.73;2.30;;;20.20;99.90;;;;;;5036844;28;20777;-52
2021/10/03 12:12:44;;;;;;;2.67;2.20;;;20.20;99.90;;;;;;5037298;28;20639;-52
2021/10/03 12:15:39;;;;;;;3.07;2.87;;;20.30;99.90;;;;;;5033529;28;20575;-51
2021/10/03 12:23:38;;;;;;;3.30;2.60;;;20.40;99.90;;;;;;5061093;28;20237;-83
2021/10/03 12:26:11;;;;;;;3.50;3.20;;;20.40;99.90;;;;;;5048714;23;23286;-47
2021/10/03 12:28:52;;;;;;;4.23;2.57;;;20.40;99.90;;;;;;5047470;28;20262;-47
2021/10/03 12:34:38;;;;;;;2.87;2.67;;;20.40;99.90;;;;;;5105407;27;20589;-48
2021/10/03 12:37:06;;;;;;;2.90;2.70;;;20.50;99.90;;;;;;5086961;28;20987;-46
2021/10/03 12:39:35;;;;;;;2.70;2.50;;;20.50;99.90;;;;;;5099462;28;20208;-48
2021/10/03 12:42:11;;;;;;;2.80;2.43;;;20.60;99.90;;;;;;5080000;28;21598;-48
2021/10/03 12:44:39;;;;;;;2.60;2.40;;;20.60;99.90;;;;;;5074407;28;20197;-49
2021/10/03 12:47:08;;;;;;;3.07;2.20;;;20.70;99.90;;;;;;5065176;28;20202;-47
2021/10/03 12:49:35;;;;;;;2.93;2.63;;;20.70;99.90;;;;;;5072230;28;20709;-49
2021/10/03 12:52:05;;;;;;;2.80;2.60;;;20.70;99.90;;;;;;5078068;28;20304;-45
2021/10/03 12:54:32;;;;;;;2.80;2.50;;;20.70;99.90;;;;;;5064603;28;20210;-44
2021/10/03 12:56:58;;;;;;;3.13;2.40;;;20.60;99.90;;;;;;5079859;28;20675;-45
2021/10/03 12:59:25;;;;;;;2.40;2.20;;;20.60;99.90;;;;;;5068809;28;20197;-52
2021/10/03 13:01:52;;;;;;;3.07;2.00;;;20.60;99.90;;;;;;5064695;28;20214;-45
2021/10/03 13:04:19;;;;;;;2.67;2.33;;;20.60;99.90;;;;;;5061759;28;20206;-53
2021/10/03 13:06:46;;;;;;;2.60;2.40;;;20.70;99.90;;;;;;5073959;28;20585;-47